createdAt,value
2018-11-13T00:00:22.810Z,84.47
2018-11-13T00:02:52.760Z,85.34
2018-11-13T00:05:23.498Z,84.28
2018-11-13T00:07:52.537Z,84.14
2018-11-13T00:10:22.777Z,83.31
2018-11-13T00:12:53.867Z,83.87
2018-11-13T00:15:23.205Z,84.37
2018-11-13T00:17:51.938Z,84.67
2018-11-13T00:20:22.265Z,84.97
2018-11-13T00:22:54.322Z,84.72
2018-11-13T00:25:23.864Z,84.61
2018-11-13T00:27:53.698Z,85.13
2018-11-13T00:30:26.916Z,84.28
2018-11-13T00:32:55.032Z,84.54
2018-11-13T00:35:23.731Z,82.86
2018-11-13T00:37:52.466Z,80.57
2018-11-13T00:40:22.605Z,82.16
2018-11-13T00:42:57.512Z,82.70
2018-11-13T00:45:27.493Z,84.14
2018-11-13T00:47:55.719Z,82.14
2018-11-13T00:50:24.767Z,80.87
2018-11-13T00:52:54.453Z,79.27
2018-11-13T00:55:27.167Z,77.58
2018-11-13T00:57:55.300Z,77.45
2018-11-13T01:00:25.268Z,76.99
2018-11-13T01:02:57.981Z,76.81
2018-11-13T01:05:26.006Z,76.62
2018-11-13T01:07:54.316Z,79.54
2018-11-13T01:10:24.256Z,81.17
2018-11-13T01:12:54.655Z,82.59
2018-11-13T01:15:23.530Z,83.36
2018-11-13T01:17:53.777Z,83.33
2018-11-13T01:20:23.964Z,83.88
2018-11-13T01:22:52.336Z,83.97
2018-11-13T01:25:24.746Z,84.73
2018-11-13T01:27:52.750Z,84.07
2018-11-13T01:30:20.780Z,83.59
2018-11-13T01:32:54.658Z,82.58
2018-11-13T01:35:24.267Z,82.22
2018-11-13T01:37:52.585Z,79.95
2018-11-13T01:40:22.389Z,79.36
2018-11-13T01:42:51.192Z,80.12
2018-11-13T01:45:21.204Z,78.99
2018-11-13T01:47:51.922Z,78.76
2018-11-13T01:50:20.653Z,80.08
2018-11-13T01:52:48.537Z,80.16
2018-11-13T01:55:16.686Z,78.93
2018-11-13T01:57:44.906Z,78.49
2018-11-13T02:00:23.120Z,77.54
2018-11-13T02:02:53.105Z,78.98
2018-11-13T02:05:23.575Z,81.29
2018-11-13T02:07:52.185Z,80.39
2018-11-13T02:10:21.466Z,80.28
2018-11-13T02:12:50.165Z,81.74
2018-11-13T02:15:18.855Z,82.82
2018-11-13T02:17:47.425Z,83.53
2018-11-13T02:20:19.125Z,85.41
2018-11-13T02:22:47.296Z,86.70
2018-11-13T02:25:17.895Z,88.39
2018-11-13T02:27:46.311Z,89.91
2018-11-13T02:30:16.177Z,89.62
2018-11-13T02:32:45.487Z,90.64
2018-11-13T02:35:14.158Z,91.36
2018-11-13T02:37:42.519Z,91.52
2018-11-13T02:40:10.510Z,91.66
2018-11-13T02:42:38.900Z,91.96
2018-11-13T02:45:10.167Z,92.64
2018-11-13T02:47:40.081Z,92.59
2018-11-13T02:50:15.261Z,92.51
2018-11-13T02:52:43.535Z,92.49
2018-11-13T02:55:11.941Z,93.54
2018-11-13T02:57:42.034Z,92.08
2018-11-13T03:00:14.070Z,92.54
2018-11-13T03:02:42.731Z,92.89
2018-11-13T03:05:14.392Z,93.32
2018-11-13T03:07:43.954Z,93.07
2018-11-13T03:10:15.206Z,92.78
2018-11-13T03:12:44.511Z,93.00
2018-11-13T03:15:14.534Z,92.00
2018-11-13T03:17:42.974Z,91.59
2018-11-13T03:20:12.986Z,92.92
2018-11-13T03:22:41.826Z,92.45
2018-11-13T03:25:12.685Z,90.84
2018-11-13T03:27:41.660Z,90.67
2018-11-13T03:30:22.923Z,89.54
2018-11-13T03:32:51.265Z,89.41
2018-11-13T03:35:19.340Z,88.85
2018-11-13T03:37:48.554Z,88.70
2018-11-13T03:40:17.137Z,88.15
2018-11-13T03:42:46.181Z,88.81
2018-11-13T03:45:14.668Z,89.90
2018-11-13T03:47:42.956Z,90.07
2018-11-13T03:50:16.317Z,90.42
2018-11-13T03:52:44.995Z,90.59
2018-11-13T03:55:14.327Z,91.64
2018-11-13T03:57:45.373Z,91.94
2018-11-13T04:00:15.618Z,93.44
2018-11-13T04:02:44.024Z,93.78
2018-11-13T04:05:13.174Z,93.54
2018-11-13T04:07:44.648Z,93.65
2018-11-13T04:10:13.636Z,93.87
2018-11-13T04:12:42.128Z,93.69
2018-11-13T04:15:12.192Z,93.23
2018-11-13T04:17:42.077Z,93.09
2018-11-13T04:20:14.077Z,92.30
2018-11-13T04:22:43.098Z,92.09
2018-11-13T04:25:13.001Z,91.53
2018-11-13T04:27:41.442Z,90.04
2018-11-13T04:30:12.615Z,90.57
2018-11-13T04:32:41.050Z,90.24
2018-11-13T04:35:10.603Z,90.81
2018-11-13T04:37:38.962Z,89.31
2018-11-13T04:40:10.947Z,89.35
2018-11-13T04:42:40.525Z,90.48
2018-11-13T04:45:10.271Z,87.70
2018-11-13T04:47:39.791Z,88.04
2018-11-13T04:50:09.683Z,88.85
2018-11-13T04:52:38.083Z,88.98
2018-11-13T04:55:07.640Z,87.58
2018-11-13T04:57:39.440Z,88.49
2018-11-13T05:00:10.050Z,88.04
2018-11-13T05:02:40.000Z,87.62
2018-11-13T05:05:08.976Z,87.91
2018-11-13T05:07:37.684Z,88.88
2018-11-13T05:10:08.464Z,89.43
2018-11-13T05:12:38.929Z,88.42
2018-11-13T05:15:07.467Z,89.36
2018-11-13T05:17:38.370Z,88.21
2018-11-13T05:20:07.347Z,88.68
2018-11-13T05:22:35.578Z,89.74
2018-11-13T05:25:06.044Z,89.51
2018-11-13T05:27:33.977Z,90.54
2018-11-13T05:30:02.857Z,90.43
2018-11-13T05:32:33.292Z,90.34
2018-11-13T05:35:01.468Z,89.02
2018-11-13T05:37:30.466Z,88.40
2018-11-13T05:42:51.342Z,87.99
2018-11-13T05:45:21.275Z,86.83
2018-11-13T05:47:49.471Z,84.63
2018-11-13T05:50:18.474Z,84.76
2018-11-13T05:52:50.459Z,86.73
2018-11-13T05:55:19.170Z,88.31
2018-11-13T05:57:47.690Z,88.83
2018-11-13T06:00:20.960Z,88.06
2018-11-13T06:02:50.076Z,88.15
2018-11-13T06:05:18.907Z,88.27
2018-11-13T06:07:47.418Z,88.65
2018-11-13T06:10:18.436Z,90.13
2018-11-13T06:12:46.608Z,90.89
2018-11-13T06:15:14.640Z,91.71
2018-11-13T06:17:42.946Z,92.02
2018-11-13T06:20:13.776Z,90.69
2018-11-13T06:22:42.559Z,90.73
2018-11-13T06:25:12.879Z,90.83
2018-11-13T06:27:43.763Z,90.72
2018-11-13T06:30:14.356Z,90.33
2018-11-13T06:32:43.408Z,88.69
2018-11-13T06:35:11.583Z,87.96
2018-11-13T06:37:40.063Z,85.70
2018-11-13T06:40:10.921Z,85.16
2018-11-13T06:42:39.732Z,85.98
2018-11-13T06:45:10.309Z,85.97
2018-11-13T06:47:39.567Z,86.37
2018-11-13T06:50:09.728Z,85.20
2018-11-13T06:52:37.886Z,85.00
2018-11-13T06:55:11.685Z,84.89
2018-11-13T06:57:40.756Z,85.33
2018-11-13T07:00:09.418Z,86.22
2018-11-13T07:02:38.617Z,86.44
2018-11-13T07:05:09.701Z,85.56
2018-11-13T07:07:40.630Z,85.66
2018-11-13T07:10:10.323Z,86.76
2018-11-13T07:12:42.007Z,85.97
2018-11-13T07:15:12.444Z,85.56
2018-11-13T07:17:42.192Z,83.23
2018-11-13T07:20:11.291Z,83.16
2018-11-13T07:22:40.372Z,84.24
2018-11-13T07:25:08.501Z,86.50
2018-11-13T07:27:36.842Z,87.50
2018-11-13T07:30:06.523Z,87.38
2018-11-13T07:32:38.880Z,86.85
2018-11-13T07:35:07.724Z,85.37
2018-11-13T07:37:36.890Z,85.42
2018-11-13T07:40:06.598Z,82.97
2018-11-13T07:42:35.992Z,82.13
2018-11-13T07:45:05.845Z,82.21
2018-11-13T07:47:34.004Z,81.19
2018-11-13T07:50:02.479Z,81.91
2018-11-13T07:52:30.679Z,82.37
2018-11-13T07:54:58.899Z,82.50
2018-11-13T07:57:27.975Z,82.64
2018-11-13T07:59:56.456Z,80.85
2018-11-13T08:02:25.767Z,78.31
2018-11-13T08:04:53.759Z,77.72
2018-11-13T08:07:23.057Z,80.32
2018-11-13T08:09:51.060Z,81.29
2018-11-13T08:12:20.198Z,81.68
2018-11-13T08:14:48.254Z,80.73
2018-11-13T08:17:17.766Z,79.20
2018-11-13T08:19:46.660Z,78.85
2018-11-13T08:22:17.018Z,79.86
2018-11-13T08:24:45.803Z,81.11
2018-11-13T08:27:14.110Z,81.61
2018-11-13T08:29:43.090Z,80.07
2018-11-13T08:32:12.140Z,77.01
2018-11-13T08:34:40.225Z,76.00
2018-11-13T08:37:10.120Z,76.44
2018-11-13T08:39:48.371Z,77.03
2018-11-13T08:42:22.450Z,79.38
2018-11-13T08:44:50.493Z,78.09
2018-11-13T08:47:19.358Z,77.48
2018-11-13T08:49:47.464Z,76.94
2018-11-13T08:52:15.646Z,77.56
2018-11-13T08:54:43.644Z,78.08
2018-11-13T08:57:12.009Z,78.02
2018-11-13T08:59:40.338Z,78.31
2018-11-13T09:02:09.018Z,77.79
2018-11-13T09:04:38.245Z,79.05
2018-11-13T09:07:06.467Z,78.14
2018-11-13T09:09:36.722Z,76.67
2018-11-13T09:12:04.902Z,74.48
2018-11-13T09:14:33.688Z,73.29
2018-11-13T09:17:02.337Z,73.34
2018-11-13T09:19:30.805Z,72.35
2018-11-13T09:22:00.307Z,72.06
2018-11-13T09:24:31.993Z,72.54
2018-11-13T09:27:00.071Z,69.68
2018-11-13T09:29:28.849Z,71.10
2018-11-13T09:31:58.195Z,71.95
2018-11-13T09:34:26.184Z,73.67
2018-11-13T09:36:55.600Z,73.99
2018-11-13T09:39:23.679Z,73.54
2018-11-13T09:41:51.828Z,72.67
2018-11-13T09:44:23.315Z,71.71
2018-11-13T09:46:54.857Z,73.05
2018-11-13T09:49:22.939Z,73.99
2018-11-13T09:51:51.687Z,73.15
2018-11-13T09:54:22.496Z,72.75
2018-11-13T09:56:53.579Z,72.07
2018-11-13T09:59:22.923Z,71.78
2018-11-13T10:01:55.689Z,71.47
2018-11-13T10:04:24.690Z,71.52
2018-11-13T10:06:55.299Z,71.93
2018-11-13T10:09:23.516Z,71.33
2018-11-13T10:11:52.272Z,71.00
2018-11-13T10:14:21.276Z,70.68
2018-11-13T10:16:50.223Z,69.55
2018-11-13T10:19:18.307Z,70.65
2018-11-13T10:21:46.270Z,70.58
2018-11-13T10:24:14.438Z,71.18
2018-11-13T10:26:42.993Z,71.22
2018-11-13T10:29:11.055Z,70.60
2018-11-13T10:31:40.366Z,70.63
2018-11-13T10:34:09.121Z,68.46
2018-11-13T10:36:40.440Z,68.40
2018-11-13T10:39:10.361Z,68.45
2018-11-13T10:41:39.082Z,67.06
2018-11-13T10:44:07.222Z,66.99
2018-11-13T10:46:35.763Z,67.16
2018-11-13T10:49:04.205Z,66.67
2018-11-13T10:51:32.166Z,63.68
2018-11-13T10:54:00.383Z,61.60
2018-11-13T10:56:29.443Z,60.48
2018-11-13T10:58:58.114Z,60.01
2018-11-13T11:01:32.276Z,58.34
2018-11-13T11:04:06.043Z,57.78
2018-11-13T11:06:35.036Z,60.93
2018-11-13T11:09:04.049Z,59.43
2018-11-13T11:11:32.389Z,59.81
2018-11-13T11:14:03.987Z,59.79
2018-11-13T11:16:40.984Z,60.68
2018-11-13T11:19:18.269Z,60.15
2018-11-13T11:21:46.531Z,59.91
2018-11-13T11:24:15.413Z,60.47
2018-11-13T11:26:43.507Z,60.76
2018-11-13T11:29:14.134Z,60.68
2018-11-13T11:31:46.479Z,60.90
2018-11-13T11:34:14.689Z,61.31
2018-11-13T11:36:50.661Z,62.43
2018-11-13T11:39:19.439Z,61.43
2018-11-13T11:41:47.571Z,62.63
2018-11-13T11:44:15.741Z,61.66
2018-11-13T11:46:43.924Z,62.12
2018-11-13T11:49:11.943Z,61.11
2018-11-13T11:51:41.008Z,61.48
2018-11-13T11:54:09.063Z,61.25
2018-11-13T11:56:40.866Z,60.16
2018-11-13T11:59:08.852Z,61.81
2018-11-13T12:01:37.509Z,60.69
2018-11-13T12:04:05.709Z,60.01
2018-11-13T12:06:33.854Z,60.29
2018-11-13T12:09:01.868Z,60.99
2018-11-13T12:11:30.037Z,59.28
2018-11-13T12:13:58.201Z,60.66
2018-11-13T12:16:27.184Z,60.17
2018-11-13T12:18:55.240Z,61.05
2018-11-13T12:21:24.413Z,61.19
2018-11-13T12:23:52.791Z,60.97
2018-11-13T12:26:20.904Z,61.90
2018-11-13T12:28:48.895Z,61.08
2018-11-13T12:31:17.112Z,61.33
2018-11-13T12:33:50.719Z,61.51
2018-11-13T12:36:21.452Z,61.43
2018-11-13T12:38:52.520Z,58.73
2018-11-13T12:41:21.557Z,59.49
2018-11-13T12:43:51.728Z,60.23
2018-11-13T12:46:22.041Z,57.56
2018-11-13T12:48:50.237Z,58.02
2018-11-13T12:51:24.775Z,58.96
2018-11-13T12:53:53.330Z,57.35
2018-11-13T12:56:25.158Z,57.82
2018-11-13T12:58:53.359Z,59.95
2018-11-13T13:01:23.810Z,59.99
2018-11-13T13:03:52.162Z,58.37
2018-11-13T13:06:20.162Z,58.00
2018-11-13T13:08:49.599Z,58.53
2018-11-13T13:11:17.571Z,58.70
2018-11-13T13:13:45.878Z,56.64
2018-11-13T13:16:17.673Z,57.85
2018-11-13T13:18:46.109Z,59.16
2018-11-13T13:21:14.194Z,58.39
2018-11-13T13:23:43.157Z,58.16
2018-11-13T13:26:12.095Z,58.50
2018-11-13T13:28:40.429Z,58.28
2018-11-13T13:31:08.707Z,57.39
2018-11-13T13:33:39.867Z,58.64
2018-11-13T13:36:07.892Z,59.30
2018-11-13T13:38:40.634Z,58.48
2018-11-13T13:41:08.716Z,58.74
2018-11-13T13:43:40.705Z,58.60
2018-11-13T13:46:09.449Z,58.68
2018-11-13T13:48:39.323Z,58.75
2018-11-13T13:51:11.617Z,57.47
2018-11-13T13:53:40.929Z,58.32
2018-11-13T13:56:12.448Z,57.61
2018-11-13T13:58:41.684Z,56.08
2018-11-13T14:01:13.390Z,53.52
2018-11-13T14:03:41.510Z,54.74
2018-11-13T14:09:10.404Z,55.36
2018-11-13T14:11:41.214Z,55.13
2018-11-13T14:14:09.245Z,57.17
2018-11-13T14:16:38.296Z,57.76
2018-11-13T14:19:07.017Z,58.94
2018-11-13T14:21:43.748Z,58.98
2018-11-13T14:24:12.612Z,58.60
2018-11-13T14:26:43.669Z,58.07
2018-11-13T14:29:12.616Z,59.49
2018-11-13T14:31:41.728Z,59.42
2018-11-13T14:34:13.161Z,59.54
2018-11-13T14:36:41.483Z,59.20
2018-11-13T14:39:13.037Z,59.22
2018-11-13T14:41:44.895Z,59.66
2018-11-13T14:44:27.246Z,60.03
2018-11-13T14:46:58.067Z,60.81
2018-11-13T14:49:31.792Z,61.44
2018-11-13T14:52:01.796Z,62.05
2018-11-13T14:54:29.810Z,62.16
2018-11-13T14:57:01.894Z,61.62
2018-11-13T14:59:42.599Z,60.90
2018-11-13T15:02:10.955Z,61.45
2018-11-13T15:04:39.104Z,61.45
2018-11-13T15:07:07.798Z,62.28
2018-11-13T15:09:51.108Z,62.58
2018-11-13T15:12:32.274Z,62.59
2018-11-13T15:15:03.254Z,63.45
2018-11-13T15:17:34.498Z,64.12
2018-11-13T15:20:03.723Z,64.14
2018-11-13T15:22:38.374Z,64.93
2018-11-13T15:25:09.095Z,65.36
2018-11-13T15:27:39.798Z,64.99
2018-11-13T15:30:16.663Z,65.36
2018-11-13T15:32:46.730Z,66.49
2018-11-13T15:35:21.687Z,67.14
2018-11-13T15:38:04.444Z,66.90
2018-11-13T15:40:32.547Z,67.25
2018-11-13T15:43:07.777Z,66.73
2018-11-13T15:45:38.856Z,67.25
2018-11-13T15:48:12.924Z,66.24
2018-11-13T15:50:41.051Z,65.99
2018-11-13T15:56:15.652Z,67.34
2018-11-13T15:58:48.442Z,67.54
2018-11-13T16:03:55.898Z,68.39
2018-11-13T16:06:24.339Z,70.39
2018-11-13T16:08:52.273Z,71.50
2018-11-13T16:11:20.617Z,71.87
2018-11-13T16:13:48.551Z,71.68
2018-11-13T16:16:18.125Z,72.19
2018-11-13T16:18:46.118Z,72.50
2018-11-13T16:21:14.023Z,72.69
2018-11-13T16:23:42.118Z,72.61
2018-11-13T16:26:10.290Z,72.83
2018-11-13T16:28:38.482Z,73.03
2018-11-13T16:31:06.857Z,72.80
2018-11-13T16:33:34.939Z,72.61
2018-11-13T16:36:03.011Z,72.19
2018-11-13T16:38:31.255Z,72.05
2018-11-13T16:40:59.238Z,72.02
2018-11-13T16:43:27.338Z,72.29
2018-11-13T16:45:55.421Z,72.10
2018-11-13T16:48:23.778Z,72.40
2018-11-13T16:50:51.630Z,73.39
2018-11-13T16:53:19.661Z,73.38
2018-11-13T16:55:53.147Z,74.00
2018-11-13T16:58:21.162Z,75.19
2018-11-13T17:00:49.234Z,75.70
2018-11-13T17:03:17.144Z,75.97
2018-11-13T17:05:45.244Z,76.39
2018-11-13T17:08:14.053Z,76.50
2018-11-13T17:10:42.950Z,77.00
2018-11-13T17:13:11.029Z,78.05
2018-11-13T17:15:39.120Z,77.88
2018-11-13T17:18:07.435Z,78.19
2018-11-13T17:20:35.528Z,78.49
2018-11-13T17:23:03.590Z,78.97
2018-11-13T17:25:33.360Z,78.72
2018-11-13T17:28:01.600Z,77.80
2018-11-13T17:30:30.935Z,76.93
2018-11-13T17:33:00.981Z,75.56
2018-11-13T17:35:29.998Z,75.81
2018-11-13T17:37:58.532Z,76.82
2018-11-13T17:40:29.933Z,76.59
2018-11-13T17:42:59.617Z,77.35
2018-11-13T17:45:35.362Z,77.32
2018-11-13T17:48:03.506Z,76.81
2018-11-13T17:50:37.569Z,76.57
2018-11-13T17:53:06.311Z,76.13
2018-11-13T17:55:34.249Z,76.30
2018-11-13T17:58:06.449Z,77.80
2018-11-13T18:00:38.718Z,77.10
2018-11-13T18:03:07.654Z,78.65
2018-11-13T18:05:35.891Z,77.91
2018-11-13T18:08:04.521Z,77.66
2018-11-13T18:10:33.138Z,77.44
2018-11-13T18:13:01.711Z,78.04
2018-11-13T18:15:30.021Z,78.40
2018-11-13T18:17:58.095Z,79.40
2018-11-13T18:20:27.288Z,79.92
2018-11-13T18:22:55.228Z,80.61
2018-11-13T18:25:23.274Z,81.09
2018-11-13T18:27:52.618Z,81.21
2018-11-13T18:30:22.874Z,81.53
2018-11-13T18:32:51.101Z,81.54
2018-11-13T18:35:21.154Z,82.43
2018-11-13T18:37:49.988Z,82.79
2018-11-13T18:40:18.787Z,82.85
2018-11-13T18:42:47.771Z,82.83
2018-11-13T18:45:22.981Z,83.04
2018-11-13T18:47:51.074Z,83.28
2018-11-13T18:50:21.584Z,83.31
2018-11-13T18:52:49.859Z,83.42
2018-11-13T18:55:18.989Z,84.30
2018-11-13T18:57:47.493Z,84.21
2018-11-13T19:00:21.387Z,84.33
2018-11-13T19:02:49.367Z,83.61
2018-11-13T19:05:18.264Z,83.58
2018-11-13T19:07:46.452Z,84.67
2018-11-13T19:10:25.083Z,85.12
2018-11-13T19:12:53.893Z,85.74
2018-11-13T19:15:23.064Z,85.85
2018-11-13T19:17:51.128Z,85.64
2018-11-13T19:20:20.067Z,85.98
2018-11-13T19:22:48.022Z,86.29
2018-11-13T19:25:17.581Z,86.75
2018-11-13T19:27:46.675Z,86.20
2018-11-13T19:30:15.634Z,85.99
2018-11-13T19:32:43.811Z,85.91
2018-11-13T19:35:12.223Z,86.84
2018-11-13T19:37:40.409Z,87.61
2018-11-13T19:40:12.124Z,87.84
2018-11-13T19:42:40.132Z,87.61
2018-11-13T19:45:08.359Z,87.54
2018-11-13T19:47:36.683Z,86.46
2018-11-13T19:50:07.108Z,85.86
2018-11-13T19:52:35.042Z,86.78
2018-11-13T19:55:03.024Z,88.59
2018-11-13T19:57:31.214Z,89.09
2018-11-13T19:59:59.089Z,87.20
2018-11-13T20:02:27.158Z,86.94
2018-11-13T20:04:55.211Z,86.97
2018-11-13T20:07:23.262Z,86.47
2018-11-13T20:09:51.160Z,88.16
2018-11-13T20:12:19.824Z,89.05
2018-11-13T20:14:48.221Z,89.59
2018-11-13T20:17:16.190Z,89.44
2018-11-13T20:19:44.181Z,89.20
2018-11-13T20:22:12.118Z,89.24
2018-11-13T20:24:40.207Z,89.71
2018-11-13T20:27:08.335Z,89.89
2018-11-13T20:29:37.119Z,90.18
2018-11-13T20:32:05.233Z,90.22
2018-11-13T20:34:33.233Z,89.72
2018-11-13T20:37:01.248Z,89.75
2018-11-13T20:39:29.174Z,89.12
2018-11-13T20:41:57.233Z,89.88
2018-11-13T20:44:25.327Z,89.96
2018-11-13T20:46:53.361Z,88.36
2018-11-13T20:49:21.291Z,88.76
2018-11-13T20:51:49.391Z,89.80
2018-11-13T20:54:17.310Z,90.01
2018-11-13T20:56:45.890Z,90.35
2018-11-13T20:59:13.726Z,89.89
2018-11-13T21:01:41.653Z,90.30
2018-11-13T21:04:09.605Z,90.39
2018-11-13T21:06:37.714Z,90.62
2018-11-13T21:09:07.154Z,90.12
2018-11-13T21:11:35.079Z,90.71
2018-11-13T21:14:03.050Z,90.87
2018-11-13T21:16:31.027Z,90.03
2018-11-13T21:18:59.204Z,90.15
2018-11-13T21:21:27.281Z,89.06
2018-11-13T21:23:55.420Z,91.28
2018-11-13T21:26:24.324Z,91.49
2018-11-13T21:28:52.367Z,90.93
2018-11-13T21:31:20.417Z,88.77
2018-11-13T21:33:48.424Z,87.34
2018-11-13T21:36:17.100Z,87.56
2018-11-13T21:38:47.367Z,88.52
2018-11-13T21:41:16.171Z,90.37
2018-11-13T21:43:44.710Z,91.35
2018-11-13T21:46:13.609Z,90.63
2018-11-13T21:48:41.534Z,88.84
2018-11-13T21:51:09.434Z,88.59
2018-11-13T21:53:38.237Z,87.62
2018-11-13T21:56:06.433Z,85.97
2018-11-13T21:58:34.447Z,85.12
2018-11-13T22:01:02.456Z,83.40
2018-11-13T22:03:30.406Z,83.01
2018-11-13T22:06:00.316Z,81.94
2018-11-13T22:08:28.370Z,82.21
2018-11-13T22:10:56.242Z,81.44
2018-11-13T22:13:24.163Z,81.22
2018-11-13T22:15:52.259Z,81.54
2018-11-13T22:18:21.209Z,81.56
2018-11-13T22:20:49.572Z,81.79
2018-11-13T22:23:17.615Z,81.75
2018-11-13T22:25:49.064Z,81.89
2018-11-13T22:28:17.080Z,81.54
2018-11-13T22:30:45.403Z,80.39
2018-11-13T22:33:13.380Z,80.40
2018-11-13T22:35:41.897Z,80.25
2018-11-13T22:38:09.888Z,80.52
2018-11-13T22:40:37.912Z,81.24
2018-11-13T22:43:05.923Z,81.90
2018-11-13T22:45:33.891Z,82.01
2018-11-13T22:48:02.225Z,80.81
2018-11-13T22:50:31.560Z,81.18
2018-11-13T22:52:59.439Z,82.10
2018-11-13T22:55:27.745Z,86.19
2018-11-13T22:57:56.574Z,88.74
2018-11-13T23:00:36.197Z,89.87
2018-11-13T23:03:05.313Z,90.02
2018-11-13T23:05:33.396Z,90.43
2018-11-13T23:08:01.687Z,91.15
2018-11-13T23:10:29.711Z,91.71
2018-11-13T23:12:57.843Z,91.83
2018-11-13T23:15:25.758Z,92.12
2018-11-13T23:17:54.932Z,93.00
2018-11-13T23:20:22.835Z,93.14
2018-11-13T23:22:50.846Z,93.31
2018-11-13T23:25:19.769Z,92.43
2018-11-13T23:27:48.710Z,92.52
2018-11-13T23:30:27.866Z,92.34
2018-11-13T23:32:57.572Z,93.06
2018-11-13T23:35:26.546Z,89.97
2018-11-13T23:37:57.568Z,89.09
2018-11-13T23:40:27.206Z,88.78
2018-11-13T23:42:55.777Z,89.09
2018-11-13T23:45:26.662Z,89.02
2018-11-13T23:47:55.856Z,87.82
2018-11-13T23:50:25.189Z,87.54
2018-11-13T23:52:52.905Z,85.85
2018-11-13T23:55:21.387Z,85.23
2018-11-13T23:57:49.394Z,84.67
